MMMX

Licenciado Benito Juarez International Airport

Mexico City, Mexico
TAF MMMX 201631Z 2018/2124 06008KT 6SM HZ SCT020 SCT200 TX24/2021Z TN14/2112Z BECMG 2021/2022 5SM VC RA BKN020CB TEMPO 2022/2102 25008G18KT 4SM TSRA FM210500 04005KT 6SM HZ SCT020 SCT200 TEMPO 2111/2115 2SM BR HZ BKN010 FM211700 07006KT 6SM HZ SCT020 SCT200 BECMG 2121/2122 BKN020CB TEMPO 2122/2124 3SM TSRA
Issued Valid From Valid To
Sep-20 @ 16:31 UTC
(2 hours ago)
Sep-20 @ 18:00 UTC
(34 minutes ago)
Sep-22 @ 00:00 UTC
(-1 days ago)
Sep-20 @ 18:00 to Sep-20 @ 21:00
TAF MMMX 201631Z 2018/2124 06008KT 6SM HZ SCT020 SCT200 TX24/2021Z TN14/2112Z
Wind Visibility Clouds Conditions
60° at 8 knots 6 miles
  • Scattered at 2,000' AGL
  • Scattered at 20,000' AGL
  • Haze
Becoming Sep-20 @ 21:00 to Sep-21 @ 05:00
BECMG 2021/2022 5SM VC RA BKN020CB
Wind Visibility Clouds Conditions
60° at 8 knots 5 miles
  • Broken at 2,000' AGL
  • Rain
Temporary Sep-20 @ 22:00 to Sep-21 @ 02:00
TEMPO 2022/2102 25008G18KT 4SM TSRA
Wind Visibility Conditions
250° at 8 knots
 Gusting to 18 knots
4 miles
  • Thunderstorm
  • Rain
From Sep-21 @ 05:00 to Sep-21 @ 17:00
FM210500 04005KT 6SM HZ SCT020 SCT200
Wind Visibility Clouds Conditions
40° at 5 knots 6 miles
  • Scattered at 2,000' AGL
  • Scattered at 20,000' AGL
  • Haze
Temporary Sep-21 @ 11:00 to Sep-21 @ 15:00
TEMPO 2111/2115 2SM BR HZ BKN010
Visibility Clouds Conditions
2 miles
  • Broken at 1,000' AGL
  • Mist
  • Haze
From Sep-21 @ 17:00 to Sep-21 @ 21:00
FM211700 07006KT 6SM HZ SCT020 SCT200
Wind Visibility Clouds Conditions
70° at 6 knots 6 miles
  • Scattered at 2,000' AGL
  • Scattered at 20,000' AGL
  • Haze
Becoming Sep-21 @ 21:00 to Sep-22 @ 00:00
BECMG 2121/2122 BKN020CB
Wind Visibility Clouds Conditions
70° at 6 knots 6 miles
  • Broken at 2,000' AGL
  • Haze
Temporary Sep-21 @ 22:00 to Sep-22 @ 00:00
TEMPO 2122/2124 3SM TSRA
Visibility Conditions
3 miles
  • Thunderstorm
  • Rain
TAF MMMX 201631Z 2018/2124 06008KT 6SM HZ SCT020 SCT200 TX24/2021Z TN14/2112Z BECMG 2021/2022 5SM VC RA BKN020CB TEMPO 2022/2102 25008G18KT 4SM TSRA FM210500 04005KT 6SM HZ SCT020 SCT200 TEMPO 2111/2115 2SM BR HZ BKN010 FM211700 07006KT 6SM HZ SCT020 SCT200 BECMG 2121/2122 BKN020CB TEMPO 2122/2124 3SM TSRA
Issued Sep-20 @ 16:31 UTC
(2 hours ago)
Valid From Sep-20 @ 18:00 UTC
(34 minutes ago)
Valid To Sep-22 @ 00:00 UTC
(-1 days ago)
Sep-20 @ 18:00 - Sep-20 @ 21:00
Wind Visibility
60° at 8 knots 6 miles
Clouds
  • Scattered at 2,000' AGL
  • Scattered at 20,000' AGL
Conditions
  • Haze
Becoming Sep-20 @ 21:00 - Sep-21 @ 05:00
Wind Visibility
60° at 8 knots 5 miles
Clouds
  • Broken at 2,000' AGL
Conditions
  • Rain
Temporary Sep-20 @ 22:00 - Sep-21 @ 02:00
Wind Visibility
250° at 8 knots
 Gusting to 18 knots
4 miles
Conditions
  • Thunderstorm
  • Rain
From Sep-21 @ 05:00 - Sep-21 @ 17:00
Wind Visibility
40° at 5 knots 6 miles
Clouds
  • Scattered at 2,000' AGL
  • Scattered at 20,000' AGL
Conditions
  • Haze
Temporary Sep-21 @ 11:00 - Sep-21 @ 15:00
Clouds
  • Broken at 1,000' AGL
Conditions
  • Mist
  • Haze
From Sep-21 @ 17:00 - Sep-21 @ 21:00
Wind Visibility
70° at 6 knots 6 miles
Clouds
  • Scattered at 2,000' AGL
  • Scattered at 20,000' AGL
Conditions
  • Haze
Becoming Sep-21 @ 21:00 - Sep-22 @ 00:00
Wind Visibility
70° at 6 knots 6 miles
Clouds
  • Broken at 2,000' AGL
Conditions
  • Haze
Temporary Sep-21 @ 22:00 - Sep-22 @ 00:00
Conditions
  • Thunderstorm
  • Rain